createdAt,value
2018-03-28T00:00:23.600Z,71.50
2018-03-28T00:01:23.594Z,73.90
2018-03-28T00:02:23.555Z,71.30
2018-03-28T00:03:23.533Z,79.70
2018-03-28T00:04:23.520Z,69.90
2018-03-28T00:05:23.481Z,68.30
2018-03-28T00:06:23.449Z,72.20
2018-03-28T00:07:23.418Z,74.60
2018-03-28T00:08:23.399Z,80.00
2018-03-28T00:09:23.371Z,71.50
2018-03-28T00:10:23.343Z,76.00
2018-03-28T00:11:23.322Z,74.50
2018-03-28T00:12:23.289Z,73.90
2018-03-28T00:13:23.264Z,78.60
2018-03-28T00:14:23.237Z,76.50
2018-03-28T00:15:23.209Z,83.90
2018-03-28T00:16:23.184Z,79.30
2018-03-28T00:17:23.158Z,77.30
2018-03-28T00:18:23.126Z,76.90
2018-03-28T00:19:23.936Z,78.30
2018-03-28T00:20:23.074Z,82.40
2018-03-28T00:21:23.054Z,81.70
2018-03-28T00:22:23.017Z,70.30
2018-03-28T00:23:22.998Z,83.50
2018-03-28T00:24:22.963Z,75.30
2018-03-28T00:25:22.939Z,87.20
2018-03-28T00:26:22.910Z,84.10
2018-03-28T00:27:22.886Z,91.50
2018-03-28T00:28:22.861Z,92.40
2018-03-28T00:29:22.830Z,94.80
2018-03-28T00:30:22.808Z,100.40
2018-03-28T00:31:22.788Z,110.40
2018-03-28T00:32:22.752Z,109.70
2018-03-28T00:33:22.737Z,102.20
2018-03-28T00:34:22.697Z,111.90
2018-03-28T00:35:22.673Z,113.50
2018-03-28T00:36:22.650Z,122.00
2018-03-28T00:37:22.616Z,122.50
2018-03-28T00:38:22.592Z,127.40
2018-03-28T00:39:22.732Z,131.40
2018-03-28T00:40:22.915Z,140.40
2018-03-28T00:41:22.926Z,119.30
2018-03-28T00:42:23.024Z,132.30
2018-03-28T00:43:22.826Z,141.50
2018-03-28T00:44:22.425Z,150.60
2018-03-28T00:45:22.403Z,170.60
2018-03-28T00:46:22.369Z,164.70
2018-03-28T00:47:22.350Z,203.70
2018-03-28T00:48:22.325Z,189.20
2018-03-28T00:49:22.297Z,186.40
2018-03-28T00:50:22.281Z,192.80
2018-03-28T00:51:22.243Z,191.70
2018-03-28T00:52:22.214Z,223.90
2018-03-28T00:53:22.196Z,201.20
2018-03-28T00:54:22.161Z,247.90
2018-03-28T00:55:22.135Z,213.70
2018-03-28T00:56:22.163Z,235.50
2018-03-28T00:57:22.085Z,249.40
2018-03-28T00:58:22.050Z,274.60
2018-03-28T00:59:22.026Z,307.10
2018-03-28T01:00:22.002Z,266.30
2018-03-28T01:01:21.975Z,245.10
2018-03-28T01:02:21.943Z,299.20
2018-03-28T01:03:21.924Z,270.10
2018-03-28T01:04:21.889Z,229.20
2018-03-28T01:05:21.863Z,261.80
2018-03-28T01:06:21.837Z,344.00
2018-03-28T01:07:21.817Z,346.90
2018-03-28T01:08:21.786Z,362.60
2018-03-28T01:09:21.756Z,272.60
2018-03-28T01:10:21.734Z,344.10
2018-03-28T01:11:21.713Z,309.00
2018-03-28T01:12:21.682Z,333.00
2018-03-28T01:13:21.656Z,312.00
2018-03-28T01:14:21.624Z,324.80
2018-03-28T01:15:21.610Z,334.50
2018-03-28T01:16:21.572Z,351.60
2018-03-28T01:17:21.562Z,345.40
2018-03-28T01:18:21.518Z,410.00
2018-03-28T01:19:21.492Z,352.20
2018-03-28T01:20:21.462Z,375.10
2018-03-28T01:21:21.435Z,319.90
2018-03-28T01:22:21.412Z,254.90
2018-03-28T01:23:21.389Z,366.00
2018-03-28T01:24:21.354Z,357.80
2018-03-28T01:25:21.357Z,353.80
2018-03-28T01:26:21.303Z,315.30
2018-03-28T01:27:21.279Z,292.30
2018-03-28T01:28:21.251Z,308.10
2018-03-28T01:29:21.224Z,314.70
2018-03-28T01:30:21.194Z,338.70
2018-03-28T01:31:21.172Z,304.70
2018-03-28T01:32:21.150Z,359.70
2018-03-28T01:33:21.130Z,339.30
2018-03-28T01:34:21.089Z,338.50
2018-03-28T01:35:21.058Z,329.60
2018-03-28T01:36:21.041Z,319.80
2018-03-28T01:37:21.018Z,286.60
2018-03-28T01:38:20.980Z,344.60
2018-03-28T01:39:20.958Z,331.40
2018-03-28T01:40:20.933Z,350.60
2018-03-28T01:41:20.908Z,355.00
2018-03-28T01:42:20.875Z,329.60
2018-03-28T01:43:20.850Z,372.30
2018-03-28T01:44:20.827Z,368.70
2018-03-28T01:45:20.802Z,332.70
2018-03-28T01:46:20.776Z,290.30
2018-03-28T01:47:20.742Z,344.20
2018-03-28T01:48:20.717Z,337.50
2018-03-28T01:49:20.682Z,350.40
2018-03-28T01:50:20.664Z,376.60
2018-03-28T01:51:20.634Z,346.40
2018-03-28T01:52:20.606Z,372.60
2018-03-28T01:53:20.577Z,381.70
2018-03-28T01:54:20.562Z,381.50
2018-03-28T01:55:20.526Z,374.00
2018-03-28T01:56:20.503Z,387.60
2018-03-28T01:57:20.477Z,392.90
2018-03-28T01:58:20.451Z,400.80
2018-03-28T01:59:20.421Z,402.50
2018-03-28T02:00:20.398Z,391.40
2018-03-28T02:01:20.368Z,410.30
2018-03-28T02:02:20.346Z,396.30
2018-03-28T02:03:20.321Z,445.80
2018-03-28T02:04:20.289Z,430.50
2018-03-28T02:05:20.258Z,465.00
2018-03-28T02:06:20.235Z,436.70
2018-03-28T02:07:20.217Z,464.00
2018-03-28T02:08:20.180Z,534.00
2018-03-28T02:09:20.156Z,659.00
2018-03-28T02:10:20.123Z,629.30
2018-03-28T02:11:20.105Z,620.80
2018-03-28T02:12:20.075Z,497.40
2018-03-28T02:13:20.042Z,605.50
2018-03-28T02:14:20.032Z,726.90
2018-03-28T02:15:19.999Z,555.60
2018-03-28T02:16:19.967Z,658.50
2018-03-28T02:17:19.946Z,660.90
2018-03-28T02:18:19.907Z,777.40
2018-03-28T02:19:19.889Z,899.20
2018-03-28T02:20:19.861Z,857.90
2018-03-28T02:21:19.831Z,1066.30
2018-03-28T02:22:19.810Z,843.50
2018-03-28T02:23:19.773Z,1144.10
2018-03-28T02:24:19.758Z,928.80
2018-03-28T02:25:19.721Z,1012.20
2018-03-28T02:26:19.695Z,800.90
2018-03-28T02:27:19.675Z,655.80
2018-03-28T02:28:19.641Z,1075.70
2018-03-28T02:29:19.617Z,969.60
2018-03-28T02:30:19.596Z,1483.40
2018-03-28T02:31:19.564Z,882.30
2018-03-28T02:32:19.532Z,1182.30
2018-03-28T02:33:19.513Z,799.80
2018-03-28T02:34:19.482Z,690.70
2018-03-28T02:35:19.454Z,885.60
2018-03-28T02:36:19.427Z,916.30
2018-03-28T02:37:19.399Z,1179.10
2018-03-28T02:38:19.381Z,1076.40
2018-03-28T02:39:19.352Z,1068.60
2018-03-28T02:40:19.320Z,1028.30
2018-03-28T02:41:19.296Z,942.60
2018-03-28T02:42:19.266Z,1020.40
2018-03-28T02:43:19.240Z,1110.50
2018-03-28T02:44:19.217Z,1030.30
2018-03-28T02:45:19.216Z,986.80
2018-03-28T02:46:19.164Z,1033.90
2018-03-28T02:47:19.131Z,965.30
2018-03-28T02:48:19.108Z,860.50
2018-03-28T02:49:19.081Z,779.00
2018-03-28T02:50:19.056Z,672.10
2018-03-28T02:51:19.022Z,703.70
2018-03-28T02:52:19.005Z,579.00
2018-03-28T02:53:18.984Z,763.10
2018-03-28T02:54:18.947Z,673.60
2018-03-28T02:55:18.922Z,627.30
2018-03-28T02:56:18.926Z,526.70
2018-03-28T02:57:18.862Z,502.40
2018-03-28T02:58:18.842Z,614.30
2018-03-28T02:59:18.812Z,622.60
2018-03-28T03:00:18.784Z,780.10
2018-03-28T03:01:18.764Z,552.20
2018-03-28T03:02:18.733Z,465.70
2018-03-28T03:03:18.702Z,640.60
2018-03-28T03:04:18.674Z,611.80
2018-03-28T03:05:18.649Z,598.10
2018-03-28T03:06:18.626Z,692.10
2018-03-28T03:07:18.617Z,619.70
2018-03-28T03:08:18.568Z,538.90
2018-03-28T03:09:18.545Z,510.90
2018-03-28T03:10:18.529Z,515.90
2018-03-28T03:11:18.485Z,553.80
2018-03-28T03:12:18.462Z,507.00
2018-03-28T03:13:18.441Z,502.20
2018-03-28T03:14:18.408Z,559.40
2018-03-28T03:15:18.379Z,556.20
2018-03-28T03:16:18.363Z,469.20
2018-03-28T03:17:18.333Z,445.00
2018-03-28T03:18:18.302Z,514.10
2018-03-28T03:19:18.271Z,508.20
2018-03-28T03:20:18.248Z,495.00
2018-03-28T03:21:18.229Z,380.30
2018-03-28T03:22:18.189Z,461.80
2018-03-28T03:23:18.171Z,421.40
2018-03-28T03:24:18.137Z,454.70
2018-03-28T03:25:18.114Z,438.70
2018-03-28T03:26:18.091Z,475.80
2018-03-28T03:27:18.056Z,435.50
2018-03-28T03:28:18.035Z,423.80
2018-03-28T03:29:18.007Z,449.10
2018-03-28T03:30:17.981Z,411.70
2018-03-28T03:31:17.960Z,422.30
2018-03-28T03:32:17.922Z,424.30
2018-03-28T03:33:17.902Z,413.40
2018-03-28T03:34:17.878Z,427.80
2018-03-28T03:35:17.848Z,417.50
2018-03-28T03:36:17.819Z,441.70
2018-03-28T03:37:17.793Z,413.80
2018-03-28T03:38:17.765Z,419.30
2018-03-28T03:39:17.742Z,397.60
2018-03-28T03:40:17.729Z,407.40
2018-03-28T03:41:17.684Z,421.50
2018-03-28T03:42:17.662Z,401.00
2018-03-28T03:43:17.632Z,411.00
2018-03-28T03:44:17.604Z,405.60
2018-03-28T03:45:17.581Z,410.90
2018-03-28T03:46:17.557Z,430.00
2018-03-28T03:47:17.524Z,410.70
2018-03-28T03:48:17.493Z,402.60
2018-03-28T03:49:17.479Z,396.60
2018-03-28T03:50:17.446Z,387.00
2018-03-28T03:51:17.415Z,379.70
2018-03-28T03:52:17.393Z,351.70
2018-03-28T03:53:17.360Z,364.20
2018-03-28T03:54:17.344Z,381.30
2018-03-28T03:55:17.320Z,381.40
2018-03-28T03:56:17.277Z,368.70
2018-03-28T03:57:17.259Z,369.90
2018-03-28T03:58:17.226Z,369.50
2018-03-28T03:59:17.213Z,377.30
2018-03-28T04:00:17.179Z,378.70
2018-03-28T04:01:17.149Z,383.10
2018-03-28T04:02:17.120Z,375.00
2018-03-28T04:03:17.098Z,380.90
2018-03-28T04:04:17.070Z,353.50
2018-03-28T04:05:17.041Z,363.00
2018-03-28T04:06:17.018Z,366.60
2018-03-28T04:07:16.993Z,332.40
2018-03-28T04:08:16.964Z,356.30
2018-03-28T04:09:16.942Z,337.20
2018-03-28T04:10:16.904Z,346.70
2018-03-28T04:11:16.875Z,330.90
2018-03-28T04:12:16.861Z,357.60
2018-03-28T04:13:16.826Z,341.50
2018-03-28T04:14:16.808Z,349.00
2018-03-28T04:15:16.771Z,313.30
2018-03-28T04:16:16.756Z,335.10
2018-03-28T04:17:16.714Z,310.50
2018-03-28T04:18:16.692Z,333.60
2018-03-28T04:19:16.677Z,316.20
2018-03-28T04:20:16.645Z,303.90
2018-03-28T04:21:16.616Z,317.60
2018-03-28T04:22:16.648Z,317.70
2018-03-28T04:23:16.644Z,323.00
2018-03-28T04:24:16.592Z,320.40
2018-03-28T04:25:16.545Z,322.60
2018-03-28T04:26:16.548Z,317.90
2018-03-28T04:27:16.554Z,326.20
2018-03-28T04:28:16.487Z,324.50
2018-03-28T04:29:16.446Z,325.30
2018-03-28T04:30:16.414Z,313.60
2018-03-28T04:31:16.347Z,322.60
2018-03-28T04:32:16.317Z,326.30
2018-03-28T04:33:16.309Z,329.90
2018-03-28T04:34:16.311Z,314.20
2018-03-28T04:35:16.313Z,329.80
2018-03-28T04:36:16.216Z,346.80
2018-03-28T04:37:16.187Z,324.90
2018-03-28T04:38:16.154Z,329.90
2018-03-28T04:39:16.135Z,317.10
2018-03-28T04:40:16.109Z,358.10
2018-03-28T04:41:16.078Z,349.60
2018-03-28T04:42:16.048Z,354.70
2018-03-28T04:43:16.020Z,360.20
2018-03-28T04:44:16.006Z,329.60
2018-03-28T04:45:15.976Z,341.60
2018-03-28T04:46:15.941Z,349.40
2018-03-28T04:47:15.915Z,349.10
2018-03-28T04:48:15.888Z,366.50
2018-03-28T04:49:15.862Z,362.00
2018-03-28T04:50:15.834Z,323.50
2018-03-28T04:51:15.812Z,353.30
2018-03-28T04:52:15.787Z,366.40
2018-03-28T04:53:15.758Z,347.10
2018-03-28T04:54:15.731Z,366.60
2018-03-28T04:55:15.703Z,380.50
2018-03-28T04:56:15.678Z,366.70
2018-03-28T04:57:15.648Z,422.40
2018-03-28T04:58:15.631Z,384.40
2018-03-28T04:59:15.602Z,393.80
2018-03-28T05:00:15.568Z,377.70
2018-03-28T05:01:15.545Z,385.80
2018-03-28T05:02:15.510Z,364.90
2018-03-28T05:03:15.486Z,363.30
2018-03-28T05:04:15.494Z,363.00
2018-03-28T05:05:15.440Z,379.00
2018-03-28T05:06:15.400Z,403.90
2018-03-28T05:07:15.380Z,411.20
2018-03-28T05:08:15.360Z,407.10
2018-03-28T05:09:15.327Z,371.80
2018-03-28T05:10:15.310Z,430.60
2018-03-28T05:11:15.272Z,408.70
2018-03-28T05:12:15.242Z,393.10
2018-03-28T05:13:15.220Z,403.80
2018-03-28T05:14:15.189Z,416.70
2018-03-28T05:15:15.162Z,379.20
2018-03-28T05:16:15.144Z,398.10
2018-03-28T05:17:15.106Z,392.00
2018-03-28T05:18:15.092Z,382.70
2018-03-28T05:19:15.063Z,373.10
2018-03-28T05:20:15.030Z,366.50
2018-03-28T05:21:15.004Z,400.70
2018-03-28T05:22:14.984Z,379.70
2018-03-28T05:23:14.951Z,399.50
2018-03-28T05:24:14.919Z,421.60
2018-03-28T05:25:14.896Z,379.70
2018-03-28T05:26:14.875Z,438.80
2018-03-28T05:27:14.844Z,477.40
2018-03-28T05:28:14.812Z,488.30
2018-03-28T05:29:14.787Z,470.40
2018-03-28T05:30:14.765Z,444.40
2018-03-28T05:31:14.737Z,502.00
2018-03-28T05:32:14.700Z,435.20
2018-03-28T05:33:14.687Z,438.10
2018-03-28T05:34:14.652Z,461.70
2018-03-28T05:35:14.627Z,469.40
2018-03-28T05:36:14.608Z,459.70
2018-03-28T05:37:14.585Z,406.70
2018-03-28T05:38:14.547Z,393.30
2018-03-28T05:39:14.516Z,342.80
2018-03-28T05:40:14.496Z,363.00
2018-03-28T05:41:14.467Z,338.80
2018-03-28T05:42:14.444Z,375.60
2018-03-28T05:43:14.411Z,359.60
2018-03-28T05:44:14.383Z,374.80
2018-03-28T05:45:14.358Z,386.60
2018-03-28T05:46:14.324Z,379.30
2018-03-28T05:47:14.299Z,402.10
2018-03-28T05:48:14.301Z,406.30
2018-03-28T05:49:14.252Z,441.20
2018-03-28T05:50:14.222Z,437.30
2018-03-28T05:51:14.191Z,447.50
2018-03-28T05:52:14.169Z,474.70
2018-03-28T05:53:14.141Z,526.50
2018-03-28T05:54:14.122Z,466.90
2018-03-28T05:55:14.085Z,520.30
2018-03-28T05:56:14.060Z,509.90
2018-03-28T05:57:14.063Z,498.60
2018-03-28T05:58:14.005Z,496.50
2018-03-28T05:59:13.979Z,452.00
2018-03-28T06:00:13.956Z,490.00
2018-03-28T06:01:13.927Z,483.60
2018-03-28T06:02:13.901Z,467.90
2018-03-28T06:03:13.899Z,482.40
2018-03-28T06:04:13.844Z,465.60
2018-03-28T06:05:13.813Z,481.30
2018-03-28T06:06:13.791Z,494.10
2018-03-28T06:07:13.760Z,477.10
2018-03-28T06:08:13.741Z,448.10
2018-03-28T06:09:13.719Z,479.50
2018-03-28T06:10:13.678Z,448.50
2018-03-28T06:11:13.655Z,431.50
2018-03-28T06:12:13.630Z,430.60
2018-03-28T06:13:13.599Z,464.40
2018-03-28T06:14:13.579Z,480.10
2018-03-28T06:15:13.551Z,463.20
2018-03-28T06:16:13.520Z,420.90
2018-03-28T06:17:13.495Z,425.60
2018-03-28T06:18:13.460Z,424.80
2018-03-28T06:19:13.435Z,418.00
2018-03-28T06:20:13.421Z,429.40
2018-03-28T06:21:13.387Z,433.00
2018-03-28T06:22:13.365Z,441.90
2018-03-28T06:23:13.334Z,423.00
2018-03-28T06:24:13.339Z,441.10
2018-03-28T06:25:13.280Z,432.90
2018-03-28T06:26:13.265Z,393.40
2018-03-28T06:27:13.228Z,425.10
2018-03-28T06:28:13.193Z,423.70
2018-03-28T06:29:13.177Z,423.80
2018-03-28T06:30:13.141Z,437.80
2018-03-28T06:31:13.113Z,432.70
2018-03-28T06:32:13.095Z,428.60
2018-03-28T06:33:13.062Z,394.40
2018-03-28T06:34:13.039Z,387.60
2018-03-28T06:35:13.013Z,439.60
2018-03-28T06:36:13.007Z,378.70
2018-03-28T06:37:12.950Z,390.20
2018-03-28T06:38:12.937Z,392.20
2018-03-28T06:39:12.906Z,408.80
2018-03-28T06:40:12.874Z,373.50
2018-03-28T06:41:12.854Z,384.70
2018-03-28T06:42:12.821Z,384.60
2018-03-28T06:43:12.805Z,390.20
2018-03-28T06:44:12.763Z,348.80
2018-03-28T06:45:12.747Z,367.50
2018-03-28T06:46:12.721Z,347.70
2018-03-28T06:47:12.692Z,360.30
2018-03-28T06:48:12.661Z,349.90
2018-03-28T06:49:12.632Z,338.70
2018-03-28T06:50:12.607Z,303.80
2018-03-28T06:51:12.581Z,320.10
2018-03-28T06:52:12.554Z,309.20
2018-03-28T06:53:12.522Z,314.80
2018-03-28T06:54:12.502Z,328.30
2018-03-28T06:55:12.475Z,319.90
2018-03-28T06:56:12.453Z,322.40
2018-03-28T06:57:12.421Z,301.70
2018-03-28T06:58:12.402Z,316.00
2018-03-28T06:59:12.362Z,307.30
2018-03-28T07:00:12.343Z,310.10
2018-03-28T07:01:12.312Z,330.90
2018-03-28T07:02:12.285Z,329.40
2018-03-28T07:03:12.258Z,328.90
2018-03-28T07:04:12.236Z,322.30
2018-03-28T07:05:12.206Z,354.00
2018-03-28T07:06:12.179Z,350.30
2018-03-28T07:07:12.153Z,328.10
2018-03-28T07:08:12.119Z,338.30
2018-03-28T07:09:12.093Z,361.50
2018-03-28T07:10:12.069Z,361.80
2018-03-28T07:11:12.060Z,345.80
2018-03-28T07:12:12.018Z,327.30
2018-03-28T07:13:11.990Z,354.60
2018-03-28T07:14:11.966Z,365.00
2018-03-28T07:15:11.940Z,350.80
2018-03-28T07:16:11.907Z,337.90
2018-03-28T07:17:11.877Z,360.00
2018-03-28T07:18:11.865Z,360.40
2018-03-28T07:19:11.838Z,351.50
2018-03-28T07:20:11.800Z,343.10
2018-03-28T07:21:11.777Z,364.00
2018-03-28T07:22:11.744Z,355.90
2018-03-28T07:23:11.724Z,364.70
2018-03-28T07:24:11.700Z,349.60
2018-03-28T07:25:11.678Z,329.50
2018-03-28T07:26:11.644Z,353.60
2018-03-28T07:27:11.612Z,307.70
2018-03-28T07:28:11.583Z,297.50
2018-03-28T07:29:11.563Z,285.10
2018-03-28T07:30:11.531Z,303.80
2018-03-28T07:31:11.505Z,307.00
2018-03-28T07:32:11.475Z,271.00
2018-03-28T07:33:11.458Z,259.80
2018-03-28T07:34:11.432Z,275.00
2018-03-28T07:35:11.393Z,248.30
2018-03-28T07:36:11.381Z,234.70
2018-03-28T07:37:11.350Z,233.60
2018-03-28T07:38:11.322Z,243.20
2018-03-28T07:39:11.287Z,212.00
2018-03-28T07:40:11.271Z,213.60
2018-03-28T07:41:11.238Z,217.40
2018-03-28T07:42:11.213Z,208.80
2018-03-28T07:43:11.184Z,200.50
2018-03-28T07:44:11.159Z,216.50
2018-03-28T07:45:11.130Z,190.30
2018-03-28T07:46:11.103Z,181.40
2018-03-28T07:47:11.074Z,182.80
2018-03-28T07:48:11.062Z,189.00
2018-03-28T07:49:11.028Z,185.70
2018-03-28T07:50:11.004Z,198.00
2018-03-28T07:51:10.980Z,194.30
2018-03-28T07:52:10.943Z,181.10
2018-03-28T07:53:10.915Z,169.80
2018-03-28T07:54:10.901Z,174.70
2018-03-28T07:55:10.872Z,183.00
2018-03-28T07:56:10.835Z,163.60
2018-03-28T07:57:10.811Z,166.10
2018-03-28T07:58:10.794Z,162.40
2018-03-28T07:59:10.760Z,166.40
2018-03-28T08:00:10.745Z,168.80
2018-03-28T08:01:10.700Z,158.90
2018-03-28T08:02:10.679Z,156.60
2018-03-28T08:03:10.662Z,170.00
2018-03-28T08:04:10.626Z,163.80
2018-03-28T08:05:10.603Z,172.30
2018-03-28T08:06:10.581Z,164.40
2018-03-28T08:07:10.556Z,172.50
2018-03-28T08:08:10.530Z,174.60
2018-03-28T08:09:10.494Z,168.00
2018-03-28T08:10:10.472Z,174.30
2018-03-28T08:11:10.441Z,154.90
2018-03-28T08:12:10.421Z,155.40
2018-03-28T08:13:10.394Z,165.80
2018-03-28T08:14:10.383Z,153.60
2018-03-28T08:15:10.343Z,142.70
2018-03-28T08:16:10.316Z,142.90
2018-03-28T08:17:10.284Z,132.90
2018-03-28T08:18:10.258Z,118.60
2018-03-28T08:19:10.277Z,113.90
2018-03-28T08:20:10.211Z,110.70
2018-03-28T08:21:10.187Z,114.10
2018-03-28T08:22:10.153Z,105.00
2018-03-28T08:23:10.131Z,108.50
2018-03-28T08:24:10.106Z,107.60
2018-03-28T08:25:10.069Z,112.30
2018-03-28T08:26:10.058Z,107.60
2018-03-28T08:27:10.027Z,103.10
2018-03-28T08:28:09.998Z,98.70
2018-03-28T08:29:09.992Z,98.70
2018-03-28T08:30:09.951Z,104.10
2018-03-28T08:31:09.921Z,100.80
2018-03-28T08:32:09.897Z,96.80
2018-03-28T08:33:09.869Z,95.70
2018-03-28T08:34:09.840Z,94.40
2018-03-28T08:35:09.814Z,90.10
2018-03-28T08:36:09.792Z,84.00
2018-03-28T08:37:09.772Z,87.80
2018-03-28T08:38:09.733Z,85.70
2018-03-28T08:39:09.711Z,89.10
2018-03-28T08:40:09.678Z,88.20
2018-03-28T08:41:09.667Z,82.70
2018-03-28T08:42:09.627Z,92.30
2018-03-28T08:43:09.610Z,90.80
2018-03-28T08:44:09.588Z,92.60
2018-03-28T08:45:09.558Z,88.20
2018-03-28T08:46:09.533Z,94.30
2018-03-28T08:47:09.505Z,94.30
2018-03-28T08:48:09.481Z,102.40
2018-03-28T08:49:09.449Z,95.70
2018-03-28T08:50:09.429Z,100.10
2018-03-28T08:51:09.409Z,110.20
2018-03-28T08:52:09.426Z,101.20
2018-03-28T08:53:09.353Z,101.10
2018-03-28T08:54:09.314Z,102.30
2018-03-28T08:55:09.299Z,100.30
2018-03-28T08:56:09.271Z,98.70
2018-03-28T08:57:09.241Z,96.20
2018-03-28T08:58:09.219Z,99.70
2018-03-28T08:59:09.188Z,107.40
2018-03-28T09:00:09.164Z,106.50
2018-03-28T09:01:09.139Z,103.90
2018-03-28T09:02:09.107Z,99.80
2018-03-28T09:03:09.098Z,107.50
2018-03-28T09:04:09.056Z,98.50
2018-03-28T09:05:09.038Z,100.90
2018-03-28T09:06:09.012Z,103.30
2018-03-28T09:07:08.982Z,102.50
2018-03-28T09:08:08.963Z,101.60
2018-03-28T09:09:08.934Z,101.60
2018-03-28T09:10:08.916Z,102.70
2018-03-28T09:11:08.889Z,98.10
2018-03-28T09:12:08.856Z,102.10
2018-03-28T09:13:08.831Z,98.70
2018-03-28T09:14:08.808Z,94.80
2018-03-28T09:15:08.771Z,90.30
2018-03-28T09:16:08.755Z,88.80
2018-03-28T09:17:08.731Z,91.10
2018-03-28T09:18:08.709Z,85.20
2018-03-28T09:19:08.687Z,87.80
2018-03-28T09:20:08.649Z,85.10
2018-03-28T09:21:08.627Z,87.90
2018-03-28T09:22:08.596Z,77.70
2018-03-28T09:23:08.579Z,77.20
2018-03-28T09:24:08.540Z,67.90
2018-03-28T09:25:08.528Z,69.00
2018-03-28T09:26:08.549Z,63.10
2018-03-28T09:27:08.474Z,65.20
2018-03-28T09:28:08.452Z,60.60
2018-03-28T09:29:08.421Z,59.70
2018-03-28T09:30:08.392Z,61.80
2018-03-28T09:31:08.363Z,59.90
2018-03-28T09:32:08.344Z,62.20
2018-03-28T09:33:08.312Z,61.60
2018-03-28T09:34:08.286Z,60.30
2018-03-28T09:35:08.261Z,58.70
2018-03-28T09:36:08.242Z,64.60
2018-03-28T09:37:08.226Z,61.80
2018-03-28T09:38:08.183Z,56.10
2018-03-28T09:39:08.212Z,55.90
2018-03-28T09:40:08.142Z,56.00
2018-03-28T09:41:08.113Z,55.90
2018-03-28T09:42:08.085Z,50.50
2018-03-28T09:43:08.067Z,50.80
2018-03-28T09:44:08.046Z,49.30
2018-03-28T09:45:08.027Z,48.20
2018-03-28T09:46:07.983Z,49.20
2018-03-28T09:47:07.950Z,49.10
2018-03-28T09:48:07.933Z,49.30
2018-03-28T09:49:07.901Z,50.20
2018-03-28T09:50:07.878Z,49.50
2018-03-28T09:51:07.848Z,49.70
2018-03-28T09:52:07.843Z,50.80
2018-03-28T09:53:07.800Z,52.30
2018-03-28T09:54:07.777Z,51.00
2018-03-28T09:55:07.752Z,50.50
2018-03-28T09:56:07.771Z,51.60
2018-03-28T09:57:07.733Z,51.10
2018-03-28T09:58:07.668Z,50.70
2018-03-28T09:59:07.644Z,52.60
2018-03-28T10:00:07.628Z,52.30
2018-03-28T10:01:07.600Z,53.50
2018-03-28T10:02:07.567Z,49.20
2018-03-28T10:03:07.544Z,51.70
2018-03-28T10:04:07.516Z,51.20
2018-03-28T10:05:07.494Z,47.90
2018-03-28T10:06:07.457Z,49.80
2018-03-28T10:07:07.448Z,53.50
2018-03-28T10:08:07.411Z,50.20
2018-03-28T10:09:07.394Z,49.70
2018-03-28T10:10:07.361Z,50.80
2018-03-28T10:11:07.331Z,52.70
2018-03-28T10:12:07.312Z,56.10
2018-03-28T10:13:07.281Z,55.00
2018-03-28T10:14:07.261Z,54.60
2018-03-28T10:15:07.236Z,60.10
2018-03-28T10:16:07.202Z,56.10
2018-03-28T10:17:07.185Z,55.80
2018-03-28T10:18:07.196Z,55.00
2018-03-28T10:19:07.127Z,58.70
2018-03-28T10:20:07.105Z,57.80
2018-03-28T10:21:07.080Z,57.70
2018-03-28T10:22:07.056Z,58.60
2018-03-28T10:23:07.019Z,56.30
2018-03-28T10:24:07.004Z,57.70
2018-03-28T10:25:06.973Z,60.80
2018-03-28T10:26:06.948Z,60.70
2018-03-28T10:27:06.922Z,60.70
2018-03-28T10:28:06.899Z,59.40
2018-03-28T10:29:06.862Z,60.50
2018-03-28T10:30:06.847Z,59.40
2018-03-28T10:31:06.816Z,59.10
2018-03-28T10:32:06.795Z,59.00
2018-03-28T10:33:06.768Z,59.70
2018-03-28T10:34:06.739Z,60.30
2018-03-28T10:35:06.754Z,61.50
2018-03-28T10:36:06.685Z,60.70
2018-03-28T10:37:06.662Z,62.80
2018-03-28T10:38:06.633Z,61.80
2018-03-28T10:39:06.618Z,59.50
2018-03-28T10:40:06.593Z,63.30
2018-03-28T10:41:06.559Z,63.20
2018-03-28T10:42:06.530Z,62.10
2018-03-28T10:43:06.508Z,62.30
2018-03-28T10:44:06.479Z,62.00
2018-03-28T10:45:06.452Z,64.20
2018-03-28T10:46:06.429Z,61.10
2018-03-28T10:47:06.394Z,61.10
2018-03-28T10:48:06.379Z,63.20
2018-03-28T10:49:06.352Z,64.40
2018-03-28T10:50:06.315Z,63.10
2018-03-28T10:51:06.299Z,63.30
2018-03-28T10:52:06.281Z,67.50
2018-03-28T10:53:06.239Z,69.10
2018-03-28T10:54:06.222Z,71.70
2018-03-28T10:55:06.186Z,70.70
2018-03-28T10:56:06.246Z,71.60
2018-03-28T10:57:06.138Z,70.30
2018-03-28T10:58:06.113Z,72.70
2018-03-28T10:59:06.098Z,72.50
2018-03-28T11:00:06.061Z,70.90
2018-03-28T11:01:06.036Z,74.70
2018-03-28T11:02:06.012Z,78.00
2018-03-28T11:03:05.990Z,77.40
2018-03-28T11:04:05.955Z,73.60
2018-03-28T11:05:05.948Z,71.80
2018-03-28T11:06:05.909Z,77.50
2018-03-28T11:07:05.881Z,69.40
2018-03-28T11:08:05.856Z,72.00
2018-03-28T11:09:05.832Z,72.30
2018-03-28T11:10:05.806Z,72.70
2018-03-28T11:11:05.788Z,72.90
2018-03-28T11:12:05.754Z,74.60
2018-03-28T11:13:05.737Z,73.90
2018-03-28T11:14:05.695Z,76.90
2018-03-28T11:15:05.672Z,75.60
2018-03-28T11:16:05.662Z,78.70
2018-03-28T11:17:05.620Z,79.80
2018-03-28T11:18:05.604Z,79.40
2018-03-28T11:19:05.578Z,83.70
2018-03-28T11:20:05.550Z,80.80
2018-03-28T11:21:05.526Z,82.60
2018-03-28T11:22:05.490Z,79.60
2018-03-28T11:23:05.476Z,89.60
2018-03-28T11:24:05.444Z,93.20
2018-03-28T11:25:05.419Z,84.40
2018-03-28T11:26:05.406Z,85.10
2018-03-28T11:27:05.363Z,86.10
2018-03-28T11:28:05.347Z,90.50
2018-03-28T11:29:05.319Z,77.40
2018-03-28T11:30:05.305Z,82.10
2018-03-28T11:31:05.268Z,79.10
2018-03-28T11:32:05.242Z,78.80
2018-03-28T11:33:05.218Z,78.60
2018-03-28T11:34:05.191Z,86.30
2018-03-28T11:35:05.160Z,90.10
2018-03-28T11:36:05.142Z,83.40
2018-03-28T11:37:05.108Z,79.20
2018-03-28T11:38:05.102Z,83.50
2018-03-28T11:39:05.062Z,73.60
2018-03-28T11:40:05.039Z,70.50
2018-03-28T11:41:05.020Z,75.60
2018-03-28T11:42:04.983Z,74.10
2018-03-28T11:43:04.972Z,76.00
2018-03-28T11:44:04.936Z,75.90
2018-03-28T11:45:04.914Z,71.00
2018-03-28T11:46:04.885Z,66.00
2018-03-28T11:47:04.864Z,65.30
2018-03-28T11:48:04.846Z,72.60
2018-03-28T11:49:04.809Z,68.50
2018-03-28T11:50:04.790Z,74.80
2018-03-28T11:51:04.756Z,75.10
2018-03-28T11:52:04.738Z,72.80
2018-03-28T11:53:04.807Z,78.20
2018-03-28T11:54:04.686Z,69.40
2018-03-28T11:55:04.663Z,69.10
2018-03-28T11:56:04.634Z,63.50
2018-03-28T11:57:04.606Z,65.30
2018-03-28T11:58:04.585Z,71.40
2018-03-28T11:59:04.555Z,63.90
2018-03-28T12:00:04.538Z,70.60
2018-03-28T12:01:04.515Z,72.00
2018-03-28T12:02:04.487Z,75.80
2018-03-28T12:03:04.457Z,74.80
2018-03-28T12:04:04.427Z,72.90
2018-03-28T12:05:04.401Z,74.90
2018-03-28T12:06:04.377Z,71.70
2018-03-28T12:07:04.353Z,75.10
2018-03-28T12:08:04.331Z,77.30
2018-03-28T12:09:04.334Z,78.90
2018-03-28T12:10:04.283Z,75.30
2018-03-28T12:11:04.254Z,75.30
2018-03-28T12:12:04.215Z,69.50
2018-03-28T12:13:04.202Z,79.40
2018-03-28T12:14:04.171Z,69.20
2018-03-28T12:15:04.154Z,71.00
2018-03-28T12:16:04.186Z,73.30
2018-03-28T12:17:04.099Z,72.30
2018-03-28T12:18:04.063Z,77.80
2018-03-28T12:19:04.062Z,70.80
2018-03-28T12:20:04.021Z,63.40
2018-03-28T12:21:04.016Z,64.90
2018-03-28T12:22:03.970Z,69.10
2018-03-28T12:23:03.944Z,67.60
2018-03-28T12:24:03.923Z,64.80
2018-03-28T12:25:03.924Z,67.50
2018-03-28T12:26:03.863Z,55.90
2018-03-28T12:27:03.849Z,62.90
2018-03-28T12:28:03.816Z,54.50
2018-03-28T12:29:03.814Z,49.10
2018-03-28T12:30:03.765Z,54.40
2018-03-28T12:31:03.735Z,49.90
2018-03-28T12:32:03.709Z,50.50
2018-03-28T12:33:03.687Z,54.40
2018-03-28T12:34:03.670Z,55.90
2018-03-28T12:35:03.638Z,53.30
2018-03-28T12:36:03.607Z,55.40